Estación Meteorológica Peña el Pijo (Robertgarden) [ 12/10/18 12:01:03 CET ]

Fecha Hora Presion(HPa) Temp (°C) Humedad % Rocio (°C) Viento ( m/s) Direccion Lluvia 1Hora(mm) Lluvia 24H(mm) LLuvia Total(mm)
2018-Oct-21 01:01:41 1011.800 13.9 78 10.1       0.51 30.56
2018-Oct-21 02:01:38 1011.700 12.6 84 9.9     1.03 1.55 31.59
2018-Oct-21 03:06:40 1011.200 12.6 87 10.5     2.07 3.62 33.67
2018-Oct-21 04:02:14 1011.100 12.5 88 10.5     2.07 5.69 35.74
2018-Oct-21 05:02:24 1010.900 12.6 90 11.0     5.18 10.87 40.92
2018-Oct-21 06:01:57 1011.500 9.9 89 8.1     32.11 42.99 73.03
2018-Oct-21 07:01:41 1011.800 10.1 90 8.5     8.80 51.80 81.84
2018-Oct-21 08:01:44 1011.800 10.3 90 8.7     1.55 53.35 83.39
2018-Oct-21 09:01:38 1012.200 10.4 91 9.0       53.35 83.39
2018-Oct-21 10:01:46 1012.600 11.8 92 10.5     0.51 53.35 83.91
2018-Oct-21 11:01:46 1012.700 12.6 92 11.5     0.51 53.87 84.43
2018-Oct-21 12:01:40 1012.700 14.8 92 13.5       53.87 84.43
2018-Oct-21 13:01:45 1012.500 16.1 90 14.5       53.87 84.43
2018-Oct-21 14:01:33 1011.900 17.4 86 15.0       53.87 84.43
2018-Oct-21 15:01:49 1011.500 17.8 78 13.9       53.87 84.43
2018-Oct-21 16:01:30 1011.400 17.4 76 13.1     0.51 54.39 84.95
2018-Oct-21 17:01:46 1011.000 16.8 78 12.9       54.39 84.95
2018-Oct-21 18:01:37 1010.600 17.9 76 13.6       54.39 84.95
2018-Oct-21 19:01:40 1011.000 14.9 79 11.3       54.39 84.95
2018-Oct-21 20:01:45 1011.500 12.8 83 9.9       54.39 84.95
2018-Oct-21 21:02:05 1011.900 11.3 85 8.8       54.39 84.95
2018-Oct-21 22:01:46 1011.700 9.9 86 7.6       54.39 84.95
2018-Oct-21 23:01:41 1012.100 9.3 88 7.4       54.39 84.95

Temperatura Máxima:17°    Temperatura Mínima:
Presión Máxima:1012.700 Hpa    Presión Mínima:1010.600 Hpa


Volver